createdAt,value
2019-04-22T00:02:11.239Z,100421.64
2019-04-22T00:06:42.704Z,100423.20
2019-04-22T00:10:46.770Z,100417.30
2019-04-22T00:14:47.994Z,100408.65
2019-04-22T00:23:03.655Z,100403.76
2019-04-22T00:27:26.134Z,100395.88
2019-04-22T00:31:32.719Z,100395.95
2019-04-22T00:35:35.474Z,100392.12
2019-04-22T00:39:49.839Z,100385.71
2019-04-22T00:43:59.598Z,100385.64
2019-04-22T00:48:00.875Z,100380.85
2019-04-22T00:52:09.356Z,100374.09
2019-04-22T01:00:25.039Z,100373.41
2019-04-22T01:04:34.538Z,100365.77
2019-04-22T01:08:43.532Z,100364.75
2019-04-22T01:12:45.691Z,100363.41
2019-04-22T01:16:50.502Z,100356.34
2019-04-22T01:21:17.790Z,100356.80
2019-04-22T01:25:02.453Z,100350.88
2019-04-22T01:29:05.021Z,100347.42
2019-04-22T01:33:05.881Z,100341.62
2019-04-22T01:37:26.947Z,100335.64
2019-04-22T01:41:48.608Z,100332.41
2019-04-22T01:45:50.670Z,100336.48
2019-04-22T01:49:55.689Z,100332.23
2019-04-22T01:54:05.499Z,100322.95
2019-04-22T01:58:04.546Z,100320.48
2019-04-22T02:02:16.268Z,100317.28
2019-04-22T02:06:25.443Z,100314.78
2019-04-22T02:10:34.805Z,100314.09
2019-04-22T02:14:41.047Z,100312.45
2019-04-22T02:18:44.936Z,100312.31
2019-04-22T02:23:30.590Z,100302.45
2019-04-22T02:27:27.462Z,100305.88
2019-04-22T02:35:58.115Z,100296.70
2019-04-22T02:39:43.046Z,100288.73
2019-04-22T02:43:59.807Z,100288.60
2019-04-22T02:48:06.694Z,100281.47
2019-04-22T02:52:07.627Z,100288.86
2019-04-22T02:56:23.114Z,100287.86
2019-04-22T03:00:27.247Z,100283.80
2019-04-22T03:12:33.265Z,100254.20
2019-04-22T03:16:48.813Z,100256.14
2019-04-22T03:21:00.330Z,100247.84
2019-04-22T03:25:32.359Z,100243.87
2019-04-22T03:29:04.760Z,100236.47
2019-04-22T03:33:23.465Z,100228.41
2019-04-22T03:37:32.355Z,100229.98
2019-04-22T03:42:01.964Z,100212.42
2019-04-22T03:50:04.146Z,100215.18
2019-04-22T03:54:03.413Z,100208.42
2019-04-22T04:02:13.994Z,100204.18
2019-04-22T04:06:18.011Z,100197.69
2019-04-22T04:10:27.830Z,100198.37
2019-04-22T04:14:38.056Z,100196.10
2019-04-22T04:18:39.597Z,100197.58
2019-04-22T04:22:55.999Z,100194.05
2019-04-22T04:31:17.470Z,100206.25
2019-04-22T04:35:12.807Z,100191.07
2019-04-22T04:39:05.533Z,100189.21
2019-04-22T04:47:38.913Z,100185.59
2019-04-22T04:55:38.776Z,100188.53
2019-04-22T05:07:56.062Z,100186.19
2019-04-22T05:12:29.164Z,100184.05
2019-04-22T05:20:27.328Z,100184.75
2019-04-22T05:28:24.459Z,100175.40
2019-04-22T05:36:43.652Z,100179.16
2019-04-22T05:40:44.119Z,100178.50
2019-04-22T05:44:54.937Z,100186.36
2019-04-22T05:49:04.392Z,100184.13
2019-04-22T05:53:00.505Z,100181.14
2019-04-22T05:57:14.379Z,100183.33
2019-04-22T06:05:31.946Z,100171.80
2019-04-22T06:09:32.667Z,100178.64
2019-04-22T06:13:34.472Z,100177.10
2019-04-22T06:17:57.420Z,100179.14
2019-04-22T06:21:57.914Z,100185.38
2019-04-22T06:26:12.625Z,100183.80
2019-04-22T06:30:19.115Z,100189.70
2019-04-22T06:34:26.556Z,100189.33
2019-04-22T06:42:36.555Z,100184.61
2019-04-22T06:46:41.853Z,100182.42
2019-04-22T06:54:54.922Z,100194.74
2019-04-22T06:58:59.077Z,100191.17
2019-04-22T07:07:12.677Z,100176.13
2019-04-22T07:11:12.523Z,100165.44
2019-04-22T07:15:43.564Z,100174.03
2019-04-22T07:19:36.099Z,100169.69
2019-04-22T07:23:45.729Z,100172.67
2019-04-22T07:27:50.611Z,100168.19
2019-04-22T07:31:56.242Z,100179.91
2019-04-22T07:36:25.748Z,100164.98
2019-04-22T07:40:02.596Z,100171.08
2019-04-22T07:44:16.670Z,100169.27
2019-04-22T07:48:33.407Z,100170.06
2019-04-22T07:52:31.912Z,100160.53
2019-04-22T07:56:36.810Z,100157.61
2019-04-22T08:00:41.084Z,100154.30
2019-04-22T08:04:59.022Z,100155.00
2019-04-22T08:09:00.272Z,100153.43
2019-04-22T08:13:04.921Z,100157.55
2019-04-22T08:17:36.523Z,100155.44
2019-04-22T08:21:18.476Z,100157.48
2019-04-22T08:25:24.830Z,100155.30
2019-04-22T08:29:37.257Z,100151.80
2019-04-22T08:33:44.556Z,100150.19
2019-04-22T08:37:57.582Z,100147.42
2019-04-22T08:41:43.421Z,100144.22
2019-04-22T08:46:02.607Z,100138.33
2019-04-22T08:50:07.805Z,100131.47
2019-04-22T08:54:13.591Z,100129.63
2019-04-22T09:06:49.341Z,100119.83
2019-04-22T09:10:43.326Z,100121.98
2019-04-22T09:14:45.867Z,100105.78
2019-04-22T09:27:11.231Z,100100.59
2019-04-22T09:31:29.232Z,100089.69
2019-04-22T09:35:30.331Z,100088.11
2019-04-22T09:39:34.669Z,100091.81
2019-04-22T09:43:49.085Z,100078.58
2019-04-22T09:51:55.430Z,100064.89
2019-04-22T09:56:03.680Z,100055.61
2019-04-22T10:00:10.928Z,100055.61
2019-04-22T10:04:14.343Z,100043.84
2019-04-22T10:08:24.159Z,100034.08
2019-04-22T10:12:32.141Z,100031.88
2019-04-22T10:16:37.083Z,100034.52
2019-04-22T10:20:48.525Z,100026.61
2019-04-22T10:24:52.003Z,100016.89
2019-04-22T10:33:05.714Z,100007.05
2019-04-22T10:36:54.327Z,100006.00
2019-04-22T10:40:56.542Z,99987.21
2019-04-22T10:45:01.908Z,99982.45
2019-04-22T10:49:08.272Z,99965.93
2019-04-22T10:53:15.481Z,99970.67
2019-04-22T10:57:22.034Z,99963.34
2019-04-22T11:01:27.600Z,99952.87
2019-04-22T11:05:34.304Z,99947.67
2019-04-22T11:09:50.773Z,99939.67
2019-04-22T11:13:47.602Z,99939.39
2019-04-22T11:17:53.535Z,99930.49
2019-04-22T11:22:07.715Z,99923.48
2019-04-22T11:26:08.161Z,99919.69
2019-04-22T11:30:18.504Z,99909.41
2019-04-22T11:34:22.215Z,99914.72
2019-04-22T11:38:28.720Z,99905.80
2019-04-22T11:42:34.334Z,99897.62
2019-04-22T11:46:39.531Z,99879.32
2019-04-22T11:50:46.172Z,99885.14
2019-04-22T11:54:52.732Z,99883.39
2019-04-22T11:59:00.470Z,99883.37
2019-04-22T12:03:07.341Z,99870.30
2019-04-22T12:07:12.877Z,99877.13
2019-04-22T12:11:18.708Z,99871.96
2019-04-22T12:15:24.651Z,99861.28
2019-04-22T12:19:31.203Z,99846.48
2019-04-22T12:23:37.065Z,99858.06
2019-04-22T12:27:43.162Z,99847.23
2019-04-22T12:31:49.431Z,99839.33
2019-04-22T12:35:54.789Z,99822.08
2019-04-22T12:40:00.398Z,99832.37
2019-04-22T12:44:07.323Z,99813.88
2019-04-22T12:48:14.855Z,99813.88
2019-04-22T12:52:30.543Z,99816.59
2019-04-22T12:56:27.847Z,99806.36
2019-04-22T13:00:34.321Z,99801.91
2019-04-22T13:04:40.558Z,99795.33
2019-04-22T13:08:45.802Z,99785.64
2019-04-22T13:12:50.991Z,99771.50
2019-04-22T13:16:57.608Z,99758.99
2019-04-22T13:21:04.211Z,99744.36
2019-04-22T13:25:10.486Z,99744.36
2019-04-22T13:29:16.920Z,99749.08
2019-04-22T13:33:23.172Z,99741.64
2019-04-22T13:37:28.639Z,99751.14
2019-04-22T13:41:41.769Z,99737.09
2019-04-22T13:45:40.901Z,99732.14
2019-04-22T13:50:36.065Z,99734.81
2019-04-22T13:58:14.603Z,99715.00
2019-04-22T14:02:38.124Z,99707.88
2019-04-22T14:06:44.852Z,99713.80
2019-04-22T14:10:50.314Z,99686.02
2019-04-22T14:14:56.375Z,99686.02
2019-04-22T14:19:02.087Z,99675.77
2019-04-22T14:23:08.360Z,99680.44
2019-04-22T14:27:27.747Z,99672.49
2019-04-22T14:31:22.800Z,99661.81
2019-04-22T14:35:29.136Z,99649.96
2019-04-22T14:39:35.785Z,99639.95
2019-04-22T14:44:23.508Z,99640.88
2019-04-22T14:48:10.920Z,99635.09
2019-04-22T14:52:24.753Z,99634.06
2019-04-22T14:56:02.270Z,99626.22
2019-04-22T15:00:11.576Z,99618.44
2019-04-22T15:04:17.284Z,99612.06
2019-04-22T15:08:22.742Z,99614.42
2019-04-22T15:12:36.763Z,99600.23
2019-04-22T15:17:00.790Z,99593.88
2019-04-22T15:21:09.087Z,99589.61
2019-04-22T15:25:14.516Z,99587.02
2019-04-22T15:29:21.039Z,99580.37
2019-04-22T15:33:27.635Z,99570.20
2019-04-22T15:37:33.185Z,99566.27
2019-04-22T15:41:38.755Z,99566.59
2019-04-22T15:45:43.942Z,99557.09
2019-04-22T15:49:49.952Z,99560.75
2019-04-22T15:53:55.810Z,99567.53
2019-04-22T15:58:01.820Z,99556.41
2019-04-22T16:02:08.286Z,99559.23
2019-04-22T16:06:15.663Z,99549.93
2019-04-22T16:10:21.992Z,99541.29
2019-04-22T16:14:32.838Z,99537.75
2019-04-22T16:18:34.124Z,99536.44
2019-04-22T16:22:57.110Z,99538.17
2019-04-22T16:27:16.490Z,99536.41
2019-04-22T16:31:22.615Z,99535.41
2019-04-22T16:35:28.728Z,99522.59
2019-04-22T16:39:33.921Z,99515.26
2019-04-22T16:43:40.639Z,99512.61
2019-04-22T16:47:45.924Z,99509.42
2019-04-22T16:51:52.033Z,99502.12
2019-04-22T16:55:57.293Z,99497.36
2019-04-22T17:00:02.919Z,99495.16
2019-04-22T17:04:18.925Z,99487.97
2019-04-22T17:08:24.627Z,99486.48
2019-04-22T17:12:41.844Z,99485.11
2019-04-22T17:16:36.806Z,99485.45
2019-04-22T17:21:05.443Z,99489.55
2019-04-22T17:25:11.972Z,99478.21
2019-04-22T17:30:16.666Z,99479.35
2019-04-22T17:34:23.345Z,99474.22
2019-04-22T17:38:40.778Z,99469.48
2019-04-22T17:42:58.937Z,99472.41
2019-04-22T17:47:16.777Z,99469.88
2019-04-22T17:51:50.343Z,99457.82
2019-04-22T17:55:46.208Z,99457.82
2019-04-22T17:59:44.767Z,99457.43
2019-04-22T18:03:36.388Z,99459.84
2019-04-22T18:07:55.905Z,99458.09
2019-04-22T18:12:07.358Z,99463.65
2019-04-22T18:16:11.863Z,99461.18
2019-04-22T18:20:14.426Z,99455.33
2019-04-22T18:24:13.039Z,99455.33
2019-04-22T18:28:32.754Z,99462.50
2019-04-22T18:32:41.065Z,99463.50
2019-04-22T18:36:41.653Z,99464.58
2019-04-22T18:40:53.356Z,99463.42
2019-04-22T18:45:12.766Z,99464.91
2019-04-22T18:49:08.066Z,99466.95
2019-04-22T18:53:37.138Z,99463.23
2019-04-22T18:57:44.081Z,99470.76
2019-04-22T19:01:41.912Z,99471.16
2019-04-22T19:06:20.428Z,99468.48
2019-04-22T19:10:27.548Z,99467.46
2019-04-22T19:14:26.423Z,99475.37
2019-04-22T19:18:38.012Z,99470.73
2019-04-22T19:22:43.852Z,99474.81
2019-04-22T19:26:58.634Z,99477.84
2019-04-22T19:30:56.336Z,99472.92
2019-04-22T19:34:55.650Z,99478.03
2019-04-22T19:38:59.198Z,99478.50
2019-04-22T19:43:18.765Z,99473.88
2019-04-22T19:51:27.826Z,99480.41
2019-04-22T19:55:39.365Z,99480.25
2019-04-22T19:59:46.538Z,99483.86
2019-04-22T20:08:26.333Z,99476.22
2019-04-22T20:12:30.880Z,99482.12
2019-04-22T20:16:46.934Z,99488.91
2019-04-22T20:20:56.072Z,99492.34
2019-04-22T20:24:47.498Z,99490.23
2019-04-22T20:28:59.003Z,99490.93
2019-04-22T20:33:04.680Z,99491.52
2019-04-22T20:37:22.300Z,99496.55
2019-04-22T20:41:20.189Z,99491.08
2019-04-22T20:45:35.118Z,99503.94
2019-04-22T20:49:35.549Z,99500.63
2019-04-22T20:53:52.315Z,99491.61
2019-04-22T20:57:53.621Z,99487.61
2019-04-22T21:01:58.917Z,99490.12
2019-04-22T21:05:55.894Z,99498.74
2019-04-22T21:10:09.163Z,99495.41
2019-04-22T21:14:16.132Z,99498.89
2019-04-22T21:18:24.773Z,99494.89
2019-04-22T21:22:35.453Z,99493.92
2019-04-22T21:26:39.978Z,99495.24
2019-04-22T21:30:48.104Z,99483.73
2019-04-22T21:35:04.154Z,99484.66
2019-04-22T21:39:00.845Z,99475.75
2019-04-22T21:43:16.226Z,99469.23
2019-04-22T21:51:29.097Z,99456.36
2019-04-22T21:55:29.773Z,99454.59
2019-04-22T21:59:34.566Z,99456.56
2019-04-22T22:03:47.761Z,99456.47
2019-04-22T22:07:48.086Z,99465.56
2019-04-22T22:11:57.493Z,99460.38
2019-04-22T22:16:06.715Z,99455.20
2019-04-22T22:20:12.750Z,99452.97
2019-04-22T22:24:32.868Z,99449.81
2019-04-22T22:28:52.142Z,99453.69
2019-04-22T22:33:00.126Z,99461.66
2019-04-22T22:36:50.205Z,99447.56
2019-04-22T22:40:43.943Z,99447.88
2019-04-22T22:45:00.632Z,99443.50
2019-04-22T22:49:26.453Z,99435.61
2019-04-22T22:53:34.003Z,99431.56
2019-04-22T22:57:33.825Z,99430.14
2019-04-22T23:01:41.115Z,99426.12
2019-04-22T23:05:50.619Z,99428.38
2019-04-22T23:09:58.607Z,99422.34
2019-04-22T23:14:02.493Z,99418.64
2019-04-22T23:17:45.811Z,99417.55
2019-04-22T23:21:57.500Z,99414.92
2019-04-22T23:26:40.405Z,99406.23
2019-04-22T23:30:44.594Z,99398.45
2019-04-22T23:35:06.759Z,99396.52
2019-04-22T23:39:15.738Z,99386.39
2019-04-22T23:43:27.607Z,99384.91
2019-04-22T23:47:26.023Z,99385.27
2019-04-22T23:51:51.665Z,99381.78
2019-04-22T23:55:48.231Z,99378.64
2019-04-22T23:59:55.386Z,99385.82
